M I D A S
Marine Information and Data Acquisition System
Tripno 1912 of the Zeeleeuw from 2010-07-01 05:14:20 to 2010-07-01 14:13:49
Back to CruiseResearch ActivitiesStationsMapUnderway DataData graphs

EquipmentUnitsComment
TimeDGPSUTC
LatitudeDGPSDM.mWGS84
LongitudeDGPSDM.mWGS84
HeadingGyrodeg 
SOGDGPSknotsSpeed over ground
COGDGPSdegCourse over ground
DepthEcho soundermeters200 kHz
Missing or incorrect values are displayed as -999
Navigation data collected by the RV Zeeleeuw from 2010-07-01 05:06:50 to 2010-07-01 14:21:27
                                                                                    Next 1000 lines
Time Latitude Longitude Heading SOG COG Depth
2010-07-01 05:07:00 51°13.662 2°55.958 111.8 0.7 283 7.8
2010-07-01 05:07:05 51°13.662 2°55.956 111.4 0.9 288 7.9
2010-07-01 05:07:10 51°13.663 2°55.953 111.1 1.2 287 8
2010-07-01 05:07:15 51°13.663 2°55.951 111.1 1.4 290 8
2010-07-01 05:07:20 51°13.664 2°55.947 111.6 1.5 289 8.1
2010-07-01 05:07:24 51°13.665 2°55.945 112.1 1.7 292 -999
2010-07-01 05:07:31 51°13.666 2°55.94 112.5 1.8 291 -999
2010-07-01 05:07:37 51°13.667 2°55.935 112.8 1.9 293 -999
2010-07-01 05:07:42 51°13.668 2°55.931 112.9 2 293 -999
2010-07-01 05:07:48 51°13.67 2°55.926 112.9 2.1 293 -999
2010-07-01 05:07:54 51°13.671 2°55.92 112.9 2.2 293 -999
2010-07-01 05:07:59 51°13.672 2°55.916 112.5 2.4 293 -999
2010-07-01 05:08:04 51°13.673 2°55.91 111.9 2.5 292 -999
2010-07-01 05:08:08 51°13.674 2°55.906 111.2 2.6 291 -999
2010-07-01 05:08:14 51°13.676 2°55.899 110.6 2.7 290 -999
2010-07-01 05:08:19 51°13.677 2°55.893 109.7 2.8 290 -999
2010-07-01 05:08:24 51°13.679 2°55.887 109 2.8 289 -999
2010-07-01 05:08:28 51°13.68 2°55.883 108.2 2.9 289 -999
2010-07-01 05:08:34 51°13.681 2°55.875 107.6 3 289 -999
2010-07-01 05:08:39 51°13.683 2°55.868 107 3.2 288 -999
2010-07-01 05:08:44 51°13.684 2°55.861 106.4 3.3 287 -999
2010-07-01 05:08:48 51°13.685 2°55.856 105.8 3.3 287 -999
2010-07-01 05:08:54 51°13.686 2°55.847 105.3 3.3 287 -999
2010-07-01 05:08:59 51°13.688 2°55.84 104.7 3.4 287 -999
2010-07-01 05:09:04 51°13.689 2°55.833 104 3.5 286 -999
2010-07-01 05:09:08 51°13.69 2°55.827 103.4 3.5 285 -999
2010-07-01 05:09:13 51°13.691 2°55.819 102.7 3.5 285 -999
2010-07-01 05:09:18 51°13.692 2°55.812 101.8 3.6 284 -999
2010-07-01 05:09:24 51°13.694 2°55.802 100.9 3.6 284 -999
2010-07-01 05:09:28 51°13.695 2°55.796 99.7 3.6 283 -999
2010-07-01 05:09:34 51°13.696 2°55.787 98.6 3.6 282 -999
2010-07-01 05:09:39 51°13.697 2°55.779 97.3 3.6 281 -999
2010-07-01 05:09:44 51°13.698 2°55.771 96.1 3.6 280 -999
2010-07-01 05:09:48 51°13.698 2°55.765 94.8 3.5 279 -999
2010-07-01 05:09:54 51°13.699 2°55.757 93.5 3.3 278 -999
2010-07-01 05:09:59 51°13.699 2°55.75 92.3 3.2 278 -999
2010-07-01 05:10:03 51°13.7 2°55.745 91.3 2.8 275 -999
2010-07-01 05:10:08 51°13.7 2°55.739 89.8 2.5 275 -999
2010-07-01 05:10:14 51°13.7 2°55.734 87.8 2.2 275 -999
2010-07-01 05:10:19 51°13.7 2°55.729 85.8 2 273 -999
2010-07-01 05:10:23 51°13.7 2°55.726 84.4 1.8 272 14.6
2010-07-01 05:10:28 51°13.7 2°55.723 83.1 1.6 270 15.3
2010-07-01 05:10:33 51°13.7 2°55.72 81.8 1.3 274 16.3
2010-07-01 05:10:38 51°13.7 2°55.718 79.8 1 271 17.2
2010-07-01 05:10:43 51°13.701 2°55.716 77.9 0.8 279 17.3
2010-07-01 05:10:48 51°13.701 2°55.715 75.4 0.6 280 17.5
2010-07-01 05:10:52 51°13.701 2°55.715 72.1 0.4 298 17.5
2010-07-01 05:10:57 51°13.701 2°55.714 69 0.3 344 17.5
2010-07-01 05:11:02 51°13.702 2°55.715 65.6 0.4 13 17.5
2010-07-01 05:11:07 51°13.703 2°55.715 62.5 0.6 31 17.5
2010-07-01 05:11:12 51°13.704 2°55.716 57.5 0.8 32 17.4
2010-07-01 05:11:16 51°13.705 2°55.717 52.9 1 34 16.4
2010-07-01 05:11:21 51°13.706 2°55.719 47.9 1.3 30 16.2
2010-07-01 05:11:26 51°13.708 2°55.72 42.9 1.6 29 14.3
2010-07-01 05:11:31 51°13.71 2°55.722 37.4 1.9 24 13.9
2010-07-01 05:11:36 51°13.713 2°55.724 31.5 2.1 20 13.8
2010-07-01 05:11:41 51°13.716 2°55.725 25.5 2.3 17 14.2
2010-07-01 05:11:46 51°13.72 2°55.726 19.2 2.5 10 14.4
2010-07-01 05:11:50 51°13.723 2°55.726 13 2.7 5 14.5
2010-07-01 05:11:55 51°13.727 2°55.726 6.8 2.9 359 14.7
2010-07-01 05:12:00 51°13.731 2°55.725 0.6 3 354 14.2
2010-07-01 05:12:05 51°13.735 2°55.724 354.3 3.2 349 13.8
2010-07-01 05:12:10 51°13.74 2°55.722 349.1 3.3 344 13.8
2010-07-01 05:12:15 51°13.745 2°55.718 342.7 3.7 337 13.4
2010-07-01 05:12:20 51°13.749 2°55.714 336.2 3.9 334 13.2
2010-07-01 05:12:25 51°13.755 2°55.71 333.2 4.2 332 13.2
2010-07-01 05:12:30 51°13.76 2°55.705 331.6 4.5 330 12.9
2010-07-01 05:12:35 51°13.766 2°55.7 330.5 4.8 330 12.6
2010-07-01 05:12:40 51°13.772 2°55.694 330 5 329 12.7
2010-07-01 05:12:44 51°13.776 2°55.69 329.6 5.2 329 12.7
2010-07-01 05:12:50 51°13.784 2°55.682 329.6 5.4 329 12.9
2010-07-01 05:12:55 51°13.791 2°55.676 329.6 5.6 329 13
2010-07-01 05:13:00 51°13.798 2°55.669 329.9 5.7 329 13.3
2010-07-01 05:13:05 51°13.805 2°55.663 330.3 5.9 329 13.4
2010-07-01 05:13:10 51°13.812 2°55.656 330.7 6 330 13.7
2010-07-01 05:13:15 51°13.82 2°55.65 331.3 6.2 331 13.6
2010-07-01 05:13:20 51°13.827 2°55.643 332 6.3 331 13.7
2010-07-01 05:13:25 51°13.835 2°55.636 332.7 6.4 332 13.4
2010-07-01 05:13:30 51°13.843 2°55.63 333.3 6.5 332 13.6
2010-07-01 05:13:35 51°13.851 2°55.623 333.9 6.5 333 13.8
2010-07-01 05:13:40 51°13.86 2°55.617 334.2 6.6 333 13.6
2010-07-01 05:13:45 51°13.868 2°55.61 334.4 6.7 333 13
2010-07-01 05:13:50 51°13.876 2°55.603 334.8 6.7 334 12.8
2010-07-01 05:13:55 51°13.884 2°55.596 334.9 6.8 333 12.7
2010-07-01 05:14:00 51°13.893 2°55.59 334.7 6.8 334 12.5
2010-07-01 05:14:05 51°13.901 2°55.583 334.7 6.9 333 12.9
2010-07-01 05:14:10 51°13.91 2°55.576 334.7 6.9 333 12.9
2010-07-01 05:14:15 51°13.918 2°55.569 334.9 6.9 334 12.9
2010-07-01 05:14:20 51°13.927 2°55.562 335 6.9 333 12.9
2010-07-01 05:14:25 51°13.936 2°55.556 335.4 6.9 334 12.9
2010-07-01 05:14:30 51°13.944 2°55.549 335.8 7 334 12.8
2010-07-01 05:14:35 51°13.953 2°55.543 336.3 7 335 12.7
2010-07-01 05:14:40 51°13.962 2°55.537 336.9 7 336 12.8
2010-07-01 05:14:45 51°13.971 2°55.53 337.5 7 336 12.7
2010-07-01 05:14:50 51°13.98 2°55.524 337.9 7.1 336 12.7
2010-07-01 05:14:55 51°13.989 2°55.518 338 7.1 336 12.8
2010-07-01 05:15:00 51°13.998 2°55.512 338.3 7.2 337 12.7
2010-07-01 05:15:04 51°14.006 2°55.507 338.6 7.2 337 12.7
2010-07-01 05:15:10 51°14.017 2°55.5 338.6 7.3 337 12.6
2010-07-01 05:15:15 51°14.026 2°55.493 338.7 7.3 338 12.5
2010-07-01 05:15:20 51°14.036 2°55.487 338.8 7.3 338 12.7
2010-07-01 05:15:25 51°14.045 2°55.481 338.8 7.3 337 12.8
2010-07-01 05:15:30 51°14.054 2°55.475 338.8 7.3 338 12.8
2010-07-01 05:15:35 51°14.064 2°55.468 338.8 7.3 337 12.8
2010-07-01 05:15:40 51°14.073 2°55.462 338.3 7.4 337 12.7
2010-07-01 05:15:45 51°14.083 2°55.455 338.1 7.4 336 12.6
2010-07-01 05:15:50 51°14.092 2°55.449 338 7.5 336 12.7
2010-07-01 05:15:55 51°14.102 2°55.442 337.7 7.5 336 12.7
2010-07-01 05:16:00 51°14.111 2°55.435 337.6 7.6 336 12.9
2010-07-01 05:16:05 51°14.121 2°55.427 336.8 7.6 334 12.7
2010-07-01 05:16:10 51°14.13 2°55.42 336 7.6 334 12.7
2010-07-01 05:16:15 51°14.14 2°55.412 334.7 7.7 332 12.8
2010-07-01 05:16:20 51°14.149 2°55.404 333.5 7.7 332 12.6
2010-07-01 05:16:24 51°14.156 2°55.397 332.5 7.7 331 12.5
2010-07-01 05:16:30 51°14.168 2°55.387 332.2 7.7 331 12.5
2010-07-01 05:16:35 51°14.177 2°55.379 331.4 7.7 330 -999
2010-07-01 05:16:40 51°14.186 2°55.37 330.5 7.7 329 12.9
2010-07-01 05:16:45 51°14.195 2°55.361 329.7 7.8 328 12.9
2010-07-01 05:16:50 51°14.204 2°55.352 329.6 7.8 329 12.6
2010-07-01 05:16:55 51°14.214 2°55.343 329.4 7.8 328 12.7
2010-07-01 05:17:00 51°14.223 2°55.333 328.5 7.8 327 12.5
2010-07-01 05:17:04 51°14.23 2°55.326 328.3 7.9 328 12.7
2010-07-01 05:17:10 51°14.241 2°55.315 328.5 7.9 328 12.6
2010-07-01 05:17:15 51°14.25 2°55.305 328.5 7.9 328 12.7
2010-07-01 05:17:20 51°14.26 2°55.296 328.5 8 328 12.5
2010-07-01 05:17:25 51°14.269 2°55.286 328.4 8.1 327 12.5
2010-07-01 05:17:30 51°14.279 2°55.276 328.3 8.2 328 12.5
2010-07-01 05:17:35 51°14.288 2°55.266 328.2 8.3 326 12.5
2010-07-01 05:17:40 51°14.298 2°55.256 328 8.4 327 12.4
2010-07-01 05:17:44 51°14.306 2°55.248 328 8.4 326 12.5
2010-07-01 05:17:50 51°14.317 2°55.235 327.4 8.4 326 12.5
2010-07-01 05:17:55 51°14.327 2°55.224 326.6 8.6 325 12.5
2010-07-01 05:18:00 51°14.337 2°55.214 326.6 8.7 326 12.4
2010-07-01 05:18:05 51°14.347 2°55.203 326.9 8.8 326 12.5
2010-07-01 05:18:10 51°14.358 2°55.192 327.6 8.9 327 12.1
2010-07-01 05:18:15 51°14.368 2°55.181 327.8 9 326 12
2010-07-01 05:18:20 51°14.378 2°55.17 327.7 9 327 12.1
2010-07-01 05:18:25 51°14.389 2°55.159 328.3 9.1 328 12.1
2010-07-01 05:18:30 51°14.4 2°55.149 329.1 9.2 328 12
2010-07-01 05:18:35 51°14.411 2°55.139 329.8 9.2 329 12.1
2010-07-01 05:18:40 51°14.422 2°55.128 330.4 9.2 330 12.2
2010-07-01 05:18:45 51°14.433 2°55.118 330.9 9.2 329 12.2
2010-07-01 05:18:50 51°14.444 2°55.108 330.8 9.2 329 12.5
2010-07-01 05:18:55 51°14.455 2°55.097 330.2 9.3 329 12.9
2010-07-01 05:19:00 51°14.466 2°55.086 329.8 9.3 329 12.8
2010-07-01 05:19:05 51°14.477 2°55.076 329.8 9.3 329 12.7
2010-07-01 05:19:10 51°14.488 2°55.065 329.7 9.4 329 12.6
2010-07-01 05:19:15 51°14.5 2°55.054 329.8 9.6 329 12.8
2010-07-01 05:19:20 51°14.511 2°55.043 329.7 9.7 329 12.8
2010-07-01 05:19:24 51°14.52 2°55.034 329.9 9.8 330 12.8
2010-07-01 05:19:30 51°14.535 2°55.021 330.3 9.9 330 13.1
2010-07-01 05:19:35 51°14.547 2°55.01 330.4 10 330 13.4
2010-07-01 05:19:40 51°14.559 2°54.999 330.3 10.1 330 13.2
2010-07-01 05:19:44 51°14.569 2°54.99 330.3 10.2 331 13.1
2010-07-01 05:19:50 51°14.584 2°54.977 330.3 10.3 332 13.3
2010-07-01 05:19:55 51°14.597 2°54.967 330.7 10.5 333 13.3
2010-07-01 05:20:00 51°14.61 2°54.957 331.3 10.5 333 13.2
2010-07-01 05:20:05 51°14.623 2°54.946 331.2 10.5 333 13.2
2010-07-01 05:20:10 51°14.636 2°54.935 330.3 10.6 333 13.2
2010-07-01 05:20:15 51°14.649 2°54.924 329.5 10.6 332 13.1
2010-07-01 05:20:20 51°14.662 2°54.914 329 10.6 333 13.1
2010-07-01 05:20:25 51°14.675 2°54.902 328.4 10.7 331 13.1
2010-07-01 05:20:30 51°14.688 2°54.89 327.2 10.8 330 13
2010-07-01 05:20:35 51°14.701 2°54.878 326 10.8 330 13
2010-07-01 05:20:40 51°14.714 2°54.867 325.5 10.9 331 13.2
2010-07-01 05:20:45 51°14.727 2°54.855 325.7 11 330 13.2
2010-07-01 05:20:50 51°14.741 2°54.843 325.8 11 330 13
2010-07-01 05:20:55 51°14.754 2°54.83 325.3 11 329 13.1
2010-07-01 05:21:00 51°14.767 2°54.817 324.8 11.1 329 13.1
2010-07-01 05:21:05 51°14.78 2°54.805 324.8 11.1 329 12.8
2010-07-01 05:21:10 51°14.793 2°54.792 324.8 11.1 330 12.2
2010-07-01 05:21:15 51°14.807 2°54.78 325 11.1 329 12.1
2010-07-01 05:21:20 51°14.82 2°54.767 325 11.1 329 11.9
2010-07-01 05:21:25 51°14.833 2°54.753 324 11.1 326 11.3
2010-07-01 05:21:30 51°14.846 2°54.741 323.1 11.1 328 11.5
2010-07-01 05:21:35 51°14.859 2°54.727 323.1 11.1 326 11.2
2010-07-01 05:21:40 51°14.872 2°54.714 322.8 11.2 327 11
2010-07-01 05:21:45 51°14.885 2°54.7 322.5 11.2 326 11.2
2010-07-01 05:21:50 51°14.898 2°54.686 322.4 11.3 328 11.2
2010-07-01 05:21:55 51°14.911 2°54.672 322.4 11.3 326 11.2
2010-07-01 05:22:00 51°14.924 2°54.659 321.7 11.4 327 11.2
2010-07-01 05:22:04 51°14.935 2°54.647 321.2 11.4 325 11.1
2010-07-01 05:22:10 51°14.951 2°54.63 320.8 11.5 327 11
2010-07-01 05:22:15 51°14.964 2°54.616 320.6 11.5 325 11.2
2010-07-01 05:22:20 51°14.977 2°54.601 320.2 11.5 326 11
2010-07-01 05:22:25 51°14.99 2°54.586 319.8 11.5 324 11
2010-07-01 05:22:30 51°15.003 2°54.572 319.4 11.6 324 10.8
2010-07-01 05:22:35 51°15.015 2°54.556 318.7 11.5 322 11
2010-07-01 05:22:40 51°15.028 2°54.541 318.4 11.6 323 10.8
2010-07-01 05:22:45 51°15.041 2°54.525 318.4 11.6 322 10.9
2010-07-01 05:22:50 51°15.054 2°54.509 318.5 11.7 323 10.8
2010-07-01 05:22:55 51°15.067 2°54.493 318.7 11.8 323 10.7
2010-07-01 05:23:00 51°15.08 2°54.478 319.3 11.8 324 10.7
2010-07-01 05:23:05 51°15.094 2°54.463 319.7 11.8 324 10.7
2010-07-01 05:23:10 51°15.107 2°54.447 320.2 11.8 325 10.5
2010-07-01 05:23:15 51°15.12 2°54.432 320.2 11.8 324 10.6
2010-07-01 05:23:20 51°15.134 2°54.417 320.2 11.9 324 10.6
2010-07-01 05:23:25 51°15.147 2°54.402 319.7 11.8 324 10.6
2010-07-01 05:23:30 51°15.16 2°54.386 320 11.9 324 10.6
2010-07-01 05:23:35 51°15.173 2°54.37 319.4 11.8 322 10.8
2010-07-01 05:23:40 51°15.186 2°54.354 319.1 11.8 322 10.7
2010-07-01 05:23:45 51°15.199 2°54.337 318.8 11.8 321 11
2010-07-01 05:23:50 51°15.212 2°54.321 318.9 11.8 322 10.8
2010-07-01 05:23:55 51°15.225 2°54.305 319.3 11.8 322 10.9
2010-07-01 05:24:00 51°15.238 2°54.29 319.6 11.8 322 11.1
2010-07-01 05:24:05 51°15.251 2°54.273 319.8 11.8 322 11.2
2010-07-01 05:24:10 51°15.264 2°54.258 320.1 11.8 322 11.2
2010-07-01 05:24:15 51°15.277 2°54.241 320.1 11.8 321 11.2
2010-07-01 05:24:20 51°15.289 2°54.225 319.6 11.8 322 11.2
2010-07-01 05:24:25 51°15.303 2°54.209 319.9 11.8 323 11.3
2010-07-01 05:24:30 51°15.316 2°54.194 320.3 11.9 323 11.2
2010-07-01 05:24:35 51°15.329 2°54.178 320.6 11.9 323 11.2
2010-07-01 05:24:40 51°15.342 2°54.161 320.3 11.9 322 11.1
2010-07-01 05:24:45 51°15.355 2°54.145 319.4 12 321 11.2
2010-07-01 05:24:50 51°15.368 2°54.128 319.1 12.1 321 11.5
2010-07-01 05:24:55 51°15.381 2°54.11 318.4 12.2 320 11.4
2010-07-01 05:25:00 51°15.394 2°54.093 318 12.3 320 11.5
2010-07-01 05:25:05 51°15.407 2°54.075 317.8 12.4 320 11.5
2010-07-01 05:25:10 51°15.42 2°54.057 317.8 12.4 320 11.6
2010-07-01 05:25:15 51°15.433 2°54.04 317.8 12.5 321 11.6
2010-07-01 05:25:20 51°15.447 2°54.022 318.1 12.5 321 11.7
2010-07-01 05:25:25 51°15.46 2°54.005 318.3 12.5 321 11.7
2010-07-01 05:25:30 51°15.474 2°53.987 318.4 12.5 320 11.9
2010-07-01 05:25:35 51°15.487 2°53.969 318 12.5 319 11.9
2010-07-01 05:25:40 51°15.5 2°53.951 317.7 12.6 320 12
2010-07-01 05:25:45 51°15.513 2°53.933 317.9 12.7 320 11.9
2010-07-01 05:25:50 51°15.527 2°53.915 318.1 12.9 320 12
2010-07-01 05:25:55 51°15.541 2°53.897 318.2 13 320 12
2010-07-01 05:26:00 51°15.555 2°53.878 318.5 13.1 320 12.1
2010-07-01 05:26:05 51°15.569 2°53.859 318.5 13.2 320 12.3
2010-07-01 05:26:10 51°15.583 2°53.84 318.4 13.3 320 12.3
2010-07-01 05:26:15 51°15.597 2°53.821 318.3 13.4 320 12.3
2010-07-01 05:26:20 51°15.612 2°53.802 318.4 13.5 320 12.3
2010-07-01 05:26:25 51°15.626 2°53.783 318.4 13.5 320 12.3
2010-07-01 05:26:30 51°15.64 2°53.764 318.3 13.5 320 12.7
2010-07-01 05:26:35 51°15.655 2°53.745 318.5 13.6 321 12.4
2010-07-01 05:26:40 51°15.67 2°53.727 318.8 13.6 321 12.5
2010-07-01 05:26:44 51°15.682 2°53.712 318.9 13.6 322 12.6
2010-07-01 05:26:50 51°15.7 2°53.69 319.4 13.6 322 12.5
2010-07-01 05:26:55 51°15.715 2°53.671 319.4 13.6 323 12.7
2010-07-01 05:27:00 51°15.729 2°53.653 319.6 13.6 322 12.6
2010-07-01 05:27:05 51°15.744 2°53.634 319.5 13.6 322 12.6
2010-07-01 05:27:10 51°15.759 2°53.616 319.4 13.6 322 12.7
2010-07-01 05:27:15 51°15.774 2°53.598 319.1 13.6 322 12.7
2010-07-01 05:27:20 51°15.789 2°53.579 319.3 13.6 323 12.8
2010-07-01 05:27:25 51°15.804 2°53.561 319.4 13.6 322 12.8
2010-07-01 05:27:30 51°15.819 2°53.542 319.3 13.6 321 12.9
2010-07-01 05:27:35 51°15.834 2°53.524 318.7 13.6 322 13
2010-07-01 05:27:40 51°15.848 2°53.505 318.8 13.6 322 12.9
2010-07-01 05:27:45 51°15.863 2°53.486 318.9 13.6 322 12.9
2010-07-01 05:27:50 51°15.878 2°53.468 319.2 13.6 322 12.9
2010-07-01 05:27:55 51°15.893 2°53.45 319.2 13.5 322 12.9
2010-07-01 05:28:00 51°15.908 2°53.432 319.8 13.6 324 12.8
2010-07-01 05:28:04 51°15.92 2°53.418 320.4 13.6 323 12.9
2010-07-01 05:28:10 51°15.939 2°53.397 321.3 13.6 326 12.9
2010-07-01 05:28:15 51°15.954 2°53.379 321.8 13.6 324 12.9
2010-07-01 05:28:20 51°15.97 2°53.363 322.4 13.6 327 13
2010-07-01 05:28:24 51°15.982 2°53.349 323 13.6 325 13.1
2010-07-01 05:28:30 51°16.002 2°53.331 325 13.7 331 13
2010-07-01 05:28:35 51°16.018 2°53.315 326.1 13.7 328 13
2010-07-01 05:28:40 51°16.036 2°53.302 328.2 13.8 333 13
2010-07-01 05:28:44 51°16.049 2°53.29 329.4 13.8 331 13.1
2010-07-01 05:28:50 51°16.07 2°53.274 330.3 13.8 335 13.2
2010-07-01 05:28:55 51°16.087 2°53.261 331.4 13.8 334 13
2010-07-01 05:29:00 51°16.105 2°53.249 332.5 13.9 336 13
2010-07-01 05:29:05 51°16.123 2°53.236 333.2 13.9 336 13.1
2010-07-01 05:29:10 51°16.141 2°53.225 334 13.9 338 13.2
2010-07-01 05:29:15 51°16.159 2°53.213 334.2 14 337 13.1
2010-07-01 05:29:20 51°16.177 2°53.202 334.8 14 339 13.1
2010-07-01 05:29:25 51°16.195 2°53.19 335.2 14 338 13.2
2010-07-01 05:29:30 51°16.213 2°53.179 335.4 14 338 13.1
2010-07-01 05:29:35 51°16.231 2°53.167 335.3 13.9 337 13.2
2010-07-01 05:29:40 51°16.249 2°53.156 334.7 13.9 337 13.2
2010-07-01 05:29:45 51°16.266 2°53.144 334.3 13.9 337 13.2
2010-07-01 05:29:50 51°16.284 2°53.132 334 13.8 337 13.3
2010-07-01 05:29:55 51°16.301 2°53.119 334 13.8 337 13.4
2010-07-01 05:30:00 51°16.319 2°53.107 333.9 13.8 337 13.2
2010-07-01 05:30:05 51°16.337 2°53.096 334.2 13.8 337 13.3
2010-07-01 05:30:10 51°16.354 2°53.084 334.4 13.7 337 13.2
2010-07-01 05:30:15 51°16.372 2°53.072 334.4 13.7 337 13.1
2010-07-01 05:30:20 51°16.389 2°53.06 334.4 13.7 336 13.2
2010-07-01 05:30:25 51°16.407 2°53.047 334.1 13.7 336 13.1
2010-07-01 05:30:30 51°16.424 2°53.035 333.9 13.7 336 13.2
2010-07-01 05:30:35 51°16.442 2°53.023 334 13.7 337 13.2
2010-07-01 05:30:40 51°16.459 2°53.011 334.3 13.8 337 13.2
2010-07-01 05:30:44 51°16.473 2°53.002 334.8 13.8 338 13.2
2010-07-01 05:30:50 51°16.495 2°52.988 334.9 13.8 337 13.1
2010-07-01 05:30:55 51°16.513 2°52.977 335.1 13.9 338 12.9
2010-07-01 05:31:00 51°16.53 2°52.965 335.2 13.9 337 12.9
2010-07-01 05:31:05 51°16.548 2°52.954 335.1 13.9 338 13
2010-07-01 05:31:10 51°16.566 2°52.942 334.9 13.9 337 12.9
2010-07-01 05:31:15 51°16.584 2°52.93 334.8 13.9 338 12.9
2010-07-01 05:31:20 51°16.602 2°52.918 334.7 13.9 337 12.7
2010-07-01 05:31:25 51°16.62 2°52.907 334.7 13.9 338 12.7
2010-07-01 05:31:30 51°16.638 2°52.895 334.7 14 337 12.7
2010-07-01 05:31:35 51°16.656 2°52.883 334.7 13.9 337 12.5
2010-07-01 05:31:40 51°16.674 2°52.871 334.6 13.9 338 12.5
2010-07-01 05:31:45 51°16.692 2°52.86 335.4 13.9 339 12.2
2010-07-01 05:31:50 51°16.71 2°52.849 336.1 14 339 12.1
2010-07-01 05:31:55 51°16.728 2°52.839 336.5 14 341 11.9
2010-07-01 05:32:00 51°16.746 2°52.829 337.8 14 342 11.7
2010-07-01 05:32:04 51°16.761 2°52.821 338.3 14 342 11.3
2010-07-01 05:32:10 51°16.783 2°52.81 339.3 14 342 11.1
2010-07-01 05:32:15 51°16.802 2°52.801 339.7 14 344 11
2010-07-01 05:32:20 51°16.821 2°52.792 340.5 14 344 11
2010-07-01 05:32:25 51°16.839 2°52.784 341 14 344 10.6
2010-07-01 05:32:30 51°16.858 2°52.776 341.4 14 345 10.6
2010-07-01 05:32:35 51°16.877 2°52.767 342 14 345 10.7
2010-07-01 05:32:40 51°16.896 2°52.76 342.5 14.1 346 10.6
2010-07-01 05:32:44 51°16.911 2°52.753 342.3 14.1 344 10.7
2010-07-01 05:32:50 51°16.934 2°52.743 342.2 14.1 346 10.9
2010-07-01 05:32:55 51°16.953 2°52.735 342.2 14.1 344 10.9
2010-07-01 05:33:00 51°16.972 2°52.727 341.9 14.2 344 11.2
2010-07-01 05:33:05 51°16.99 2°52.717 341.9 14.2 343 11.2
2010-07-01 05:33:10 51°17.009 2°52.708 341.2 14.2 343 11.3
2010-07-01 05:33:15 51°17.028 2°52.7 341.7 14.3 344 11.4
2010-07-01 05:33:20 51°17.047 2°52.691 342.4 14.3 344 11.4
2010-07-01 05:33:25 51°17.066 2°52.683 342.7 14.2 345 11.2
2010-07-01 05:33:30 51°17.085 2°52.676 343.4 14.2 346 11.1
2010-07-01 05:33:35 51°17.104 2°52.668 344.3 14.2 346 11.1
2010-07-01 05:33:40 51°17.124 2°52.662 345.3 14.2 348 11
2010-07-01 05:33:45 51°17.142 2°52.654 345.6 14.1 346 10.8
2010-07-01 05:33:50 51°17.162 2°52.648 345.6 14 348 10.8
2010-07-01 05:33:55 51°17.181 2°52.641 346.3 14.1 347 11.2
2010-07-01 05:34:00 51°17.2 2°52.635 346.2 14.1 349 11.1
2010-07-01 05:34:05 51°17.219 2°52.629 346.6 14.2 348 11.2
2010-07-01 05:34:10 51°17.239 2°52.624 347.7 14.2 351 11.1
2010-07-01 05:34:15 51°17.258 2°52.618 348.7 14.1 349 11.2
2010-07-01 05:34:20 51°17.277 2°52.614 349.8 14.2 352 11.3
2010-07-01 05:34:25 51°17.296 2°52.608 349.9 14.1 349 11.2
2010-07-01 05:34:30 51°17.316 2°52.604 350.3 14.1 352 11.4
2010-07-01 05:34:35 51°17.335 2°52.598 350.7 14 350 11.2
2010-07-01 05:34:40 51°17.354 2°52.594 351.2 14 352 11.4
2010-07-01 05:34:45 51°17.373 2°52.589 351.3 14 351 11.5
2010-07-01 05:34:50 51°17.393 2°52.586 351.5 14 353 11.5
2010-07-01 05:34:55 51°17.412 2°52.581 351.8 14 352 11.5
2010-07-01 05:35:00 51°17.431 2°52.577 351.6 13.9 352 11.5
2010-07-01 05:35:05 51°17.45 2°52.572 351.4 13.9 351 11.6
2010-07-01 05:35:10 51°17.469 2°52.568 351.4 13.9 352 11.5
2010-07-01 05:35:15 51°17.488 2°52.563 351.3 13.9 351 11.5
2010-07-01 05:35:20 51°17.508 2°52.559 351.2 13.9 352 11.7
2010-07-01 05:35:25 51°17.526 2°52.554 351.2 13.9 351 11.6
2010-07-01 05:35:30 51°17.546 2°52.55 351.1 13.9 352 11.8
2010-07-01 05:35:35 51°17.565 2°52.546 351.3 13.9 352 11.5
2010-07-01 05:35:40 51°17.584 2°52.542 351.5 13.8 352 11.6
2010-07-01 05:35:44 51°17.599 2°52.538 351.5 13.8 352 11.7
2010-07-01 05:35:50 51°17.622 2°52.534 351.4 13.8 352 11.8
2010-07-01 05:35:55 51°17.641 2°52.529 351.4 13.9 351 11.7
2010-07-01 05:36:00 51°17.66 2°52.525 351.3 13.9 352 11.8
2010-07-01 05:36:05 51°17.679 2°52.52 350.9 13.9 351 11.7
2010-07-01 05:36:10 51°17.698 2°52.516 350.9 13.9 352 11.6
2010-07-01 05:36:15 51°17.717 2°52.511 351.1 13.9 351 11.7
2010-07-01 05:36:20 51°17.736 2°52.506 351.1 13.9 351 11.5
2010-07-01 05:36:25 51°17.755 2°52.503 350.8 13.8 353 11.5
2010-07-01 05:36:30 51°17.774 2°52.5 351.8 13.8 354 11.6
2010-07-01 05:36:35 51°17.794 2°52.501 356.3 13.8 1 11.6
2010-07-01 05:36:40 51°17.813 2°52.501 359.4 13.9 1 11.6
2010-07-01 05:36:45 51°17.832 2°52.504 2 13.9 5 11.7
2010-07-01 05:36:50 51°17.851 2°52.507 4.5 13.9 5 11.8
2010-07-01 05:36:55 51°17.871 2°52.512 6.1 13.9 9 11.7
2010-07-01 05:37:00 51°17.89 2°52.516 7.9 14 8 11.8
2010-07-01 05:37:05 51°17.909 2°52.521 8.8 14 10 11.7
2010-07-01 05:37:10 51°17.928 2°52.527 10.2 14 10 11.8
2010-07-01 05:37:15 51°17.947 2°52.533 11.2 14 12 11.8
2010-07-01 05:37:20 51°17.966 2°52.538 11.7 14 10 11.8
2010-07-01 05:37:25 51°17.985 2°52.546 12.4 14.1 14 11.8
2010-07-01 05:37:30 51°18.004 2°52.551 12.6 14 10 12.1
2010-07-01 05:37:35 51°18.023 2°52.559 12.7 14 14 11.8
2010-07-01 05:37:40 51°18.042 2°52.565 13.3 14 11 11.9
2010-07-01 05:37:44 51°18.057 2°52.57 12.8 14 13 11.9
2010-07-01 05:37:50 51°18.08 2°52.578 12.9 14 12 12.1
2010-07-01 05:37:55 51°18.099 2°52.585 12.7 14 13 11.9
2010-07-01 05:38:00 51°18.118 2°52.591 12.8 14 12 11.9
2010-07-01 05:38:05 51°18.137 2°52.598 12.8 14.1 12 12
2010-07-01 05:38:10 51°18.156 2°52.604 12.5 14 12 12.1
2010-07-01 05:38:15 51°18.175 2°52.611 12.7 14.1 13 12.1
2010-07-01 05:38:20 51°18.194 2°52.617 12.7 14 11 12.1
2010-07-01 05:38:25 51°18.213 2°52.624 12.6 14 13 12.1
2010-07-01 05:38:30 51°18.232 2°52.63 12.6 14.1 11 12.2
2010-07-01 05:38:35 51°18.251 2°52.636 12.4 14 12 12.4
2010-07-01 05:38:40 51°18.271 2°52.643 12.3 14.1 11 12.3
2010-07-01 05:38:45 51°18.29 2°52.648 11.7 14.1 11 12.5
2010-07-01 05:38:50 51°18.309 2°52.655 11.9 14.1 12 12.4
2010-07-01 05:38:55 51°18.328 2°52.661 12.1 14.1 12 12.5
2010-07-01 05:39:00 51°18.347 2°52.667 12.1 14 11 12.4
2010-07-01 05:39:05 51°18.366 2°52.674 12.2 14 12 12.6
2010-07-01 05:39:10 51°18.385 2°52.679 12 14 11 12.5
2010-07-01 05:39:15 51°18.404 2°52.686 11.9 14 12 12.5
2010-07-01 05:39:20 51°18.423 2°52.691 11.7 14 11 12.6
2010-07-01 05:39:24 51°18.438 2°52.696 11.4 14 11 12.5
2010-07-01 05:39:30 51°18.461 2°52.702 11.2 14 10 12.5
2010-07-01 05:39:35 51°18.48 2°52.709 11.3 14.1 11 12.7
2010-07-01 05:39:40 51°18.5 2°52.714 11.2 14 10 12.6
2010-07-01 05:39:44 51°18.515 2°52.719 11 14 11 12.6
2010-07-01 05:39:50 51°18.538 2°52.726 11.3 14.1 11 12.6
2010-07-01 05:39:55 51°18.557 2°52.732 11.4 14.1 11 12.6
2010-07-01 05:40:00 51°18.576 2°52.738 11.4 14.1 12 12.5
2010-07-01 05:40:05 51°18.595 2°52.743 11.6 14.1 11 12.5
2010-07-01 05:40:10 51°18.614 2°52.75 11.4 14.1 11 12.6
2010-07-01 05:40:15 51°18.633 2°52.755 11.1 14.1 11 12.7
2010-07-01 05:40:20 51°18.653 2°52.761 10.9 14.1 11 12.8
2010-07-01 05:40:25 51°18.672 2°52.767 10.9 14.1 11 12.7
2010-07-01 05:40:30 51°18.691 2°52.772 10.6 14.1 10 12.8
2010-07-01 05:40:35 51°18.71 2°52.778 10.8 14.1 11 12.9
2010-07-01 05:40:40 51°18.729 2°52.783 10.6 14.1 10 13
2010-07-01 05:40:45 51°18.748 2°52.789 10.5 14.1 11 13
2010-07-01 05:40:50 51°18.768 2°52.794 10.7 14.1 10 13
2010-07-01 05:40:55 51°18.787 2°52.8 10.9 14.1 11 13
2010-07-01 05:41:00 51°18.806 2°52.806 11 14.1 10 13
2010-07-01 05:41:05 51°18.825 2°52.811 10.7 14.1 11 13.2
2010-07-01 05:41:10 51°18.844 2°52.817 10.8 14.1 10 13.2
2010-07-01 05:41:15 51°18.863 2°52.823 10.9 14.1 11 13.2
2010-07-01 05:41:20 51°18.882 2°52.828 11 14 10 13.1
2010-07-01 05:41:25 51°18.902 2°52.834 10.8 14.1 11 13.3
2010-07-01 05:41:30 51°18.921 2°52.839 11 14.1 10 13.4
2010-07-01 05:41:35 51°18.94 2°52.845 10.8 14.1 11 13.2
2010-07-01 05:41:40 51°18.959 2°52.851 11 14.1 11 13.4
2010-07-01 05:41:44 51°18.974 2°52.855 10.5 14 10 13.4
2010-07-01 05:41:50 51°18.997 2°52.862 10.9 14 10 13.4
2010-07-01 05:41:55 51°19.016 2°52.868 10.9 14 11 13.5
2010-07-01 05:42:00 51°19.035 2°52.873 10.9 14 10 13.5
2010-07-01 05:42:05 51°19.054 2°52.878 10.7 13.9 10 13.7
2010-07-01 05:42:10 51°19.074 2°52.884 10.5 14.1 10 13.7
2010-07-01 05:42:15 51°19.093 2°52.889 10.4 14 10 13.8
2010-07-01 05:42:20 51°19.112 2°52.895 10.5 14 10 13.8
2010-07-01 05:42:25 51°19.131 2°52.9 10.6 14.1 10 14
2010-07-01 05:42:30 51°19.151 2°52.905 10.4 14.1 10 14
2010-07-01 05:42:35 51°19.17 2°52.911 10.3 14.1 10 14.2
2010-07-01 05:42:40 51°19.189 2°52.916 10.4 14 10 14.1
2010-07-01 05:42:45 51°19.208 2°52.921 10.6 14 10 14.3
2010-07-01 05:42:50 51°19.227 2°52.927 10.9 14.1 10 14.4
2010-07-01 05:42:55 51°19.246 2°52.932 10.8 14 10 14.3
2010-07-01 05:43:00 51°19.265 2°52.938 10.6 14.1 11 14.4
2010-07-01 05:43:05 51°19.284 2°52.943 10.7 14 10 14.9
2010-07-01 05:43:10 51°19.304 2°52.949 11 14.1 11 14.5
2010-07-01 05:43:15 51°19.323 2°52.955 11 14 10 14.6
2010-07-01 05:43:20 51°19.342 2°52.961 10.9 14 11 14.7
2010-07-01 05:43:25 51°19.361 2°52.966 11 14.1 10 14.9
2010-07-01 05:43:30 51°19.38 2°52.972 10.5 14.1 10 14.9
2010-07-01 05:43:35 51°19.399 2°52.977 10.6 14.1 9 14.9
2010-07-01 05:43:40 51°19.419 2°52.982 10.2 14.1 10 15
2010-07-01 05:43:45 51°19.438 2°52.988 10.1 14.1 10 15.1
2010-07-01 05:43:50 51°19.457 2°52.992 9.9 14.1 9 15.2
2010-07-01 05:43:55 51°19.476 2°52.998 10.1 14 10 15.3
2010-07-01 05:44:00 51°19.495 2°53.003 10.3 14 10 15.3
2010-07-01 05:44:04 51°19.511 2°53.008 10.6 14 10 15.4
2010-07-01 05:44:10 51°19.534 2°53.014 10.7 14 9 15.4
2010-07-01 05:44:15 51°19.553 2°53.02 10.5 14.1 11 15.5
2010-07-01 05:44:20 51°19.572 2°53.025 10.5 14 10 15.6
2010-07-01 05:44:25 51°19.591 2°53.03 10.2 14 10 15.6
2010-07-01 05:44:30 51°19.611 2°53.036 10.3 14 10 15.7
2010-07-01 05:44:35 51°19.63 2°53.041 10.6 14 10 15.8
2010-07-01 05:44:40 51°19.649 2°53.047 10.4 14.1 10 15.9
2010-07-01 05:44:45 51°19.668 2°53.052 10.5 14.1 10 15.9
2010-07-01 05:44:50 51°19.687 2°53.057 10.2 14 10 15.9
2010-07-01 05:44:55 51°19.707 2°53.062 10.3 14 10 16.1
2010-07-01 05:45:00 51°19.726 2°53.067 10.2 14 9 16.2
2010-07-01 05:45:05 51°19.745 2°53.073 10 14 10 16.2
2010-07-01 05:45:10 51°19.764 2°53.078 10 14 10 16.3
2010-07-01 05:45:15 51°19.783 2°53.083 10.2 14 10 16.4
2010-07-01 05:45:20 51°19.803 2°53.089 10.5 14 10 16.4
2010-07-01 05:45:25 51°19.822 2°53.094 10.5 14 10 16.5
2010-07-01 05:45:30 51°19.841 2°53.099 10.5 14 9 16.5
2010-07-01 05:45:35 51°19.86 2°53.105 10.2 14 10 16.5
2010-07-01 05:45:40 51°19.879 2°53.11 10.3 14.1 10 16.8
2010-07-01 05:45:45 51°19.898 2°53.115 10.3 14 10 16.8
2010-07-01 05:45:50 51°19.917 2°53.121 10.2 14 10 16.7
2010-07-01 05:45:55 51°19.937 2°53.125 9.9 14.1 9 17
2010-07-01 05:46:00 51°19.956 2°53.131 9.8 14.1 10 17
2010-07-01 05:46:05 51°19.975 2°53.136 10 14.1 10 17.2
2010-07-01 05:46:10 51°19.994 2°53.142 10.3 14 10 16.9
2010-07-01 05:46:15 51°20.014 2°53.148 10.5 14.1 11 17
2010-07-01 05:46:20 51°20.033 2°53.153 10.5 14.1 10 17.1
2010-07-01 05:46:24 51°20.048 2°53.157 10.4 14 11 17.1
2010-07-01 05:46:30 51°20.071 2°53.164 10.7 13.9 10 17.2
2010-07-01 05:46:35 51°20.09 2°53.17 10.6 13.9 10 17.3
2010-07-01 05:46:40 51°20.109 2°53.175 10.4 13.9 10 17.3
2010-07-01 05:46:45 51°20.128 2°53.18 10.4 14 10 17.2
2010-07-01 05:46:50 51°20.147 2°53.185 10.2 14 9 17.3
2010-07-01 05:46:55 51°20.166 2°53.19 10 13.9 10 17.3
2010-07-01 05:47:00 51°20.186 2°53.196 10.1 13.9 10 17.3
2010-07-01 05:47:04 51°20.201 2°53.2 10.2 14 11 17.4
2010-07-01 05:47:10 51°20.224 2°53.207 10.4 14 10 17.3
2010-07-01 05:47:15 51°20.243 2°53.212 10.5 14 10 17.3
2010-07-01 05:47:20 51°20.262 2°53.217 10.5 14 10 17.3
2010-07-01 05:47:25 51°20.281 2°53.222 10.1 14 9 17.4
2010-07-01 05:47:30 51°20.3 2°53.227 10 13.8 9 17.3
2010-07-01 05:47:35 51°20.319 2°53.231 9.6 13.9 8 17.4
2010-07-01 05:47:40 51°20.338 2°53.236 9.7 13.9 9 17.4
2010-07-01 05:47:45 51°20.358 2°53.241 9.9 13.9 9 17.5
2010-07-01 05:47:50 51°20.376 2°53.246 10.2 13.9 9 17.5
2010-07-01 05:47:55 51°20.396 2°53.251 10.2 14 9 17.4
2010-07-01 05:48:00 51°20.415 2°53.256 10.5 14 10 17.5
2010-07-01 05:48:05 51°20.434 2°53.262 10.7 14 10 17.5
2010-07-01 05:48:10 51°20.453 2°53.267 10.8 14 10 17.5
2010-07-01 05:48:15 51°20.472 2°53.272 10.6 14 9 17.6
2010-07-01 05:48:20 51°20.491 2°53.277 10.2 14 9 17.6
2010-07-01 05:48:24 51°20.507 2°53.282 10.2 14 10 17.5
2010-07-01 05:48:30 51°20.53 2°53.288 10.2 14.1 10 17.5
2010-07-01 05:48:35 51°20.55 2°53.293 10.2 14.1 10 17.6
2010-07-01 05:48:40 51°20.569 2°53.298 10.2 14.1 9 17.6
2010-07-01 05:48:44 51°20.584 2°53.302 10.1 14 9 17.6
2010-07-01 05:48:50 51°20.607 2°53.308 9.8 14 9 17.5
2010-07-01 05:48:55 51°20.626 2°53.313 9.8 14 9 17.5
2010-07-01 05:49:00 51°20.646 2°53.318 10.2 14 10 17.7
2010-07-01 05:49:05 51°20.665 2°53.323 10 14.1 9 17.5
2010-07-01 05:49:10 51°20.684 2°53.329 10.3 14 11 17.6
2010-07-01 05:49:15 51°20.703 2°53.334 10.8 14 9 17.5
2010-07-01 05:49:20 51°20.722 2°53.339 10.5 14 10 17.6
2010-07-01 05:49:25 51°20.741 2°53.345 10.6 14 10 17.6
2010-07-01 05:49:30 51°20.76 2°53.35 10.7 13.9 10 17.5
2010-07-01 05:49:35 51°20.779 2°53.355 10.5 13.9 10 17.7
2010-07-01 05:49:40 51°20.798 2°53.36 10.4 13.9 9 17.6
2010-07-01 05:49:45 51°20.817 2°53.365 10.2 13.9 10 17.5
2010-07-01 05:49:50 51°20.837 2°53.371 10.3 14 10 17.7
2010-07-01 05:49:55 51°20.856 2°53.376 10.6 13.9 10 17.5
2010-07-01 05:50:00 51°20.875 2°53.381 10.3 14 9 17.6
2010-07-01 05:50:05 51°20.894 2°53.386 10.2 14 9 17.5
2010-07-01 05:50:10 51°20.913 2°53.391 10.2 14 10 17.6
2010-07-01 05:50:15 51°20.932 2°53.396 10.4 14 9 17.7
2010-07-01 05:50:20 51°20.951 2°53.401 10.4 14 10 17.7
2010-07-01 05:50:25 51°20.97 2°53.406 10.4 14 9 17.6
2010-07-01 05:50:30 51°20.989 2°53.411 10 14 8 17.6
2010-07-01 05:50:35 51°21.008 2°53.415 9.8 14 9 17.7
2010-07-01 05:50:40 51°21.028 2°53.421 10.1 14 9 17.6
2010-07-01 05:50:44 51°21.043 2°53.424 10.2 14 9 17.7
2010-07-01 05:50:50 51°21.066 2°53.431 10.2 14 10 17.5
2010-07-01 05:50:55 51°21.085 2°53.436 10.5 14 10 17.6
2010-07-01 05:51:00 51°21.104 2°53.441 10.6 14 10 17.7
2010-07-01 05:51:04 51°21.12 2°53.445 10.5 14 9 17.4
2010-07-01 05:51:10 51°21.143 2°53.452 10.5 14.1 10 17.3
2010-07-01 05:51:15 51°21.162 2°53.457 10.8 14.2 10 17.4
2010-07-01 05:51:20 51°21.181 2°53.462 10.6 14 10 17.3
2010-07-01 05:51:24 51°21.196 2°53.466 10.3 14 9 17.3
2010-07-01 05:51:30 51°21.219 2°53.472 10.4 14 10 17.1
2010-07-01 05:51:35 51°21.239 2°53.478 10.6 14 10 17.3
2010-07-01 05:51:40 51°21.258 2°53.483 10.7 14.1 10 17.3
2010-07-01 05:51:45 51°21.277 2°53.488 10.3 14.1 9 17.5
2010-07-01 05:51:50 51°21.296 2°53.493 10.3 14 9 17.3
2010-07-01 05:51:55 51°21.316 2°53.498 10.2 14.1 9 17.3
2010-07-01 05:52:00 51°21.335 2°53.503 10.2 14.1 9 17.5
2010-07-01 05:52:04 51°21.351 2°53.507 10 14.1 9 17.4
2010-07-01 05:52:10 51°21.374 2°53.514 10.2 14.1 10 17.5
2010-07-01 05:52:15 51°21.393 2°53.519 10.2 14.1 10 17.5
2010-07-01 05:52:20 51°21.413 2°53.524 10.5 14.1 10 17.6
2010-07-01 05:52:25 51°21.432 2°53.529 10.5 14 9 17.4
2010-07-01 05:52:30 51°21.451 2°53.534 10.2 14 9 17.5
2010-07-01 05:52:35 51°21.47 2°53.539 10 14 9 17.4
2010-07-01 05:52:40 51°21.489 2°53.544 9.8 14 9 17.5
2010-07-01 05:52:44 51°21.505 2°53.548 9.8 14 9 17.4
2010-07-01 05:52:50 51°21.528 2°53.554 10.2 14 9 17.6
2010-07-01 05:52:55 51°21.547 2°53.559 10.3 14 10 17.5
2010-07-01 05:53:00 51°21.566 2°53.564 10.5 14 10 17.5
2010-07-01 05:53:04 51°21.582 2°53.569 10.6 14 10 17.7
2010-07-01 05:53:10 51°21.605 2°53.575 10.7 14 9 17.7
2010-07-01 05:53:15 51°21.624 2°53.58 10.4 14 10 17.6
2010-07-01 05:53:20 51°21.643 2°53.585 10.3 14 9 17.7
2010-07-01 05:53:25 51°21.662 2°53.591 10.3 14 9 17.9
2010-07-01 05:53:30 51°21.681 2°53.595 10.1 14 8 18.1
2010-07-01 05:53:35 51°21.7 2°53.597 7.3 13.9 5 18
2010-07-01 05:53:40 51°21.72 2°53.6 6 13.9 5 18.1
2010-07-01 05:53:45 51°21.739 2°53.601 4.3 13.9 2 18.3
2010-07-01 05:53:50 51°21.758 2°53.602 3.4 13.9 3 18.6
2010-07-01 05:53:55 51°21.777 2°53.602 2.3 13.9 -999 18.8
2010-07-01 05:54:00 51°21.797 2°53.604 1.5 13.9 2 19
2010-07-01 05:54:05 51°21.816 2°53.603 0.4 13.9 359 19.1
2010-07-01 05:54:10 51°21.835 2°53.604 0.5 13.9 2 19.2
2010-07-01 05:54:15 51°21.855 2°53.603 -999 13.9 359 19.2
2010-07-01 05:54:20 51°21.874 2°53.604 359.4 14 1 19.6
2010-07-01 05:54:24 51°21.89 2°53.603 359.4 14 359 19.6
2010-07-01 05:54:30 51°21.913 2°53.603 359.2 14 -999 19.8
2010-07-01 05:54:35 51°21.932 2°53.602 359.2 14 359 19.6
2010-07-01 05:54:40 51°21.951 2°53.603 359.3 14 -999 19.9
2010-07-01 05:54:45 51°21.971 2°53.602 359.4 14 359 20
2010-07-01 05:54:50 51°21.99 2°53.602 359.2 13.9 359 20
2010-07-01 05:54:55 51°22.01 2°53.602 359.2 14 -999 20
2010-07-01 05:55:00 51°22.029 2°53.602 359.4 14 -999 20.1
2010-07-01 05:55:05 51°22.049 2°53.602 359.6 14 -999 20.3
2010-07-01 05:55:10 51°22.068 2°53.602 359.4 14 359 20.4
2010-07-01 05:55:15 51°22.088 2°53.601 359.1 14 -999 20.5
2010-07-01 05:55:20 51°22.107 2°53.601 359.3 13.9 359 20.8
2010-07-01 05:55:25 51°22.126 2°53.601 359.5 14 -999 21.1
2010-07-01 05:55:30 51°22.146 2°53.601 359.5 14 359 21.3
2010-07-01 05:55:35 51°22.165 2°53.601 359.6 14 -999 21.5
2010-07-01 05:55:40 51°22.185 2°53.601 359.5 14 -999 21.8
2010-07-01 05:55:45 51°22.204 2°53.601 359.4 14 359 21.8
2010-07-01 05:55:50 51°22.224 2°53.601 359.4 14 -999 22
2010-07-01 05:55:55 51°22.243 2°53.601 359.5 14 -999 22.2
2010-07-01 05:56:00 51°22.262 2°53.601 359.7 14 359 22.6
2010-07-01 05:56:04 51°22.278 2°53.6 359.5 14 359 22.6
2010-07-01 05:56:10 51°22.301 2°53.6 359.4 14 359 22.8
2010-07-01 05:56:15 51°22.321 2°53.599 359.5 14 359 23.1
2010-07-01 05:56:20 51°22.34 2°53.598 359.4 14 359 22.9
2010-07-01 05:56:25 51°22.359 2°53.598 359.3 14 359 22.9
2010-07-01 05:56:30 51°22.379 2°53.598 359.8 14 -999 23.3
2010-07-01 05:56:35 51°22.398 2°53.598 -999 14 -999 23.3
2010-07-01 05:56:40 51°22.418 2°53.597 -999 14 359 23.3
2010-07-01 05:56:45 51°22.437 2°53.597 359.8 14 359 23.3
2010-07-01 05:56:50 51°22.456 2°53.597 359.7 14.1 -999 23.7
2010-07-01 05:56:55 51°22.476 2°53.597 0.1 14 359 23.6
2010-07-01 05:57:00 51°22.495 2°53.597 359.8 14 -999 23.7
2010-07-01 05:57:05 51°22.515 2°53.597 -999 14.1 -999 24
2010-07-01 05:57:10 51°22.534 2°53.597 -999 14.1 -999 23.8
2010-07-01 05:57:15 51°22.554 2°53.597 -999 14.1 1 23.7
2010-07-01 05:57:20 51°22.574 2°53.597 0.3 14.1 -999 23.4
2010-07-01 05:57:24 51°22.589 2°53.597 0.3 14.1 -999 23.5
2010-07-01 05:57:30 51°22.613 2°53.598 0.2 14.1 -999 23.7
2010-07-01 05:57:35 51°22.633 2°53.598 0.1 14.2 -999 23.8
2010-07-01 05:57:40 51°22.652 2°53.598 0.1 14.2 1 23.6
2010-07-01 05:57:44 51°22.668 2°53.598 -999 14.2 -999 23.6
2010-07-01 05:57:50 51°22.692 2°53.599 359.9 14.2 1 23.7
2010-07-01 05:57:55 51°22.711 2°53.599 0.1 14.2 -999 23.3
2010-07-01 05:58:00 51°22.731 2°53.6 0.1 14.3 1 22.8
2010-07-01 05:58:04 51°22.747 2°53.6 0.2 14.3 1 23.3
2010-07-01 05:58:10 51°22.771 2°53.601 0.2 14.4 1 23.8
2010-07-01 05:58:15 51°22.791 2°53.601 0.3 14.4 1 23.7
2010-07-01 05:58:20 51°22.811 2°53.602 0.2 14.4 1 23.7
2010-07-01 05:58:25 51°22.831 2°53.603 -999 14.3 1 23.3
2010-07-01 05:58:30 51°22.851 2°53.603 0.1 14.4 1 22.8
2010-07-01 05:58:35 51°22.871 2°53.604 359.9 14.4 1 22.9
2010-07-01 05:58:40 51°22.891 2°53.604 -999 14.3 1 22.6
2010-07-01 05:58:45 51°22.911 2°53.604 359.8 14.4 -999 22.5
2010-07-01 05:58:50 51°22.931 2°53.605 359.7 14.4 1 22.4
2010-07-01 05:58:55 51°22.951 2°53.605 359.9 14.3 1 22.2
2010-07-01 05:59:00 51°22.971 2°53.606 0.1 14.4 1 21.7
2010-07-01 05:59:05 51°22.991 2°53.606 0.2 14.4 1 20
2010-07-01 05:59:10 51°23.01 2°53.606 359.7 14.3 -999 21.9
2010-07-01 05:59:15 51°23.03 2°53.607 359.5 14.3 1 21.4
2010-07-01 05:59:20 51°23.05 2°53.607 359.8 14.4 1 20.5
2010-07-01 05:59:25 51°23.07 2°53.607 359.6 14.3 1 17
2010-07-01 05:59:30 51°23.09 2°53.607 0.1 14.3 1 21.5
2010-07-01 05:59:35 51°23.11 2°53.607 359.8 14.3 -999 21.9
2010-07-01 05:59:40 51°23.13 2°53.608 0.1 14.3 1 22
2010-07-01 05:59:44 51°23.146 2°53.607 359.7 14.3 -999 21.6
2010-07-01 05:59:50 51°23.169 2°53.608 0.1 14.2 -999 20.3
2010-07-01 05:59:55 51°23.189 2°53.608 0.1 14.2 -999 22.1
2010-07-01 06:00:00 51°23.209 2°53.608 359.9 14.2 -999 21.7
2010-07-01 06:00:04 51°23.225 2°53.607 359.6 14.2 359 21.3
2010-07-01 06:00:10 51°23.248 2°53.607 359.7 14.2 -999 21.1
2010-07-01 06:00:15 51°23.268 2°53.607 359.8 14.1 -999 20.9
2010-07-01 06:00:20 51°23.288 2°53.607 0.1 14.1 -999 20.9
2010-07-01 06:00:24 51°23.303 2°53.607 0.5 14.2 -999 21.1
2010-07-01 06:00:30 51°23.327 2°53.607 0.5 14.1 -999 20.6
2010-07-01 06:00:35 51°23.346 2°53.607 0.1 14.2 -999 18.9
2010-07-01 06:00:40 51°23.366 2°53.607 359.8 14.2 -999 21.5
2010-07-01 06:00:45 51°23.386 2°53.607 0.1 14.1 -999 21.7
2010-07-01 06:00:50 51°23.405 2°53.607 -999 14 359 21.7
2010-07-01 06:00:55 51°23.425 2°53.606 0.4 14.1 359 21.6
2010-07-01 06:01:00 51°23.444 2°53.606 -999 14.1 359 21.6
2010-07-01 06:01:05 51°23.464 2°53.606 -999 14.1 -999 21.7
2010-07-01 06:01:10 51°23.484 2°53.605 0.2 14.1 -999 21.6
2010-07-01 06:01:15 51°23.503 2°53.605 0.3 14 359 21.5
2010-07-01 06:01:20 51°23.523 2°53.604 0.1 14 359 21.5
2010-07-01 06:01:24 51°23.538 2°53.604 359.7 14.1 359 21.5
2010-07-01 06:01:30 51°23.561 2°53.604 -999 14 359 21.5
2010-07-01 06:01:35 51°23.581 2°53.603 0.1 14 359 21
2010-07-01 06:01:40 51°23.6 2°53.603 0.1 14 -999 20.6
2010-07-01 06:01:45 51°23.62 2°53.602 0.3 14.1 359 20.7
2010-07-01 06:01:50 51°23.639 2°53.603 0.2 14 -999 20.6
2010-07-01 06:01:55 51°23.658 2°53.602 0.6 14 -999 20.5
2010-07-01 06:02:00 51°23.678 2°53.602 0.7 14 -999 20.9
2010-07-01 06:02:05 51°23.697 2°53.602 0.4 14 359 21
2010-07-01 06:02:10 51°23.717 2°53.602 0.4 14 359 20.9
2010-07-01 06:02:15 51°23.736 2°53.601 0.2 14 359 20.7
2010-07-01 06:02:20 51°23.756 2°53.601 0.1 14 359 21.1
2010-07-01 06:02:25 51°23.775 2°53.601 0.4 14.1 -999 21.8
2010-07-01 06:02:30 51°23.795 2°53.6 0.4 14 359 21.9
2010-07-01 06:02:35 51°23.814 2°53.6 0.8 14.1 -999 21.7
2010-07-01 06:02:40 51°23.834 2°53.6 0.7 14 -999 21.6
2010-07-01 06:02:45 51°23.853 2°53.6 0.7 14 -999 21.8
2010-07-01 06:02:50 51°23.873 2°53.6 0.9 14.1 -999 22.1
2010-07-01 06:02:55 51°23.893 2°53.6 1.1 14.2 -999 21.8
2010-07-01 06:03:00 51°23.913 2°53.599 0.7 14.1 359 22
2010-07-01 06:03:05 51°23.932 2°53.599 0.3 14.1 359 21.5
2010-07-01 06:03:10 51°23.952 2°53.599 0.1 14.1 -999 21.4
2010-07-01 06:03:15 51°23.971 2°53.598 0.3 14.1 359 21.9
2010-07-01 06:03:20 51°23.991 2°53.598 0.2 14.1 -999 22.4
2010-07-01 06:03:24 51°24.006 2°53.598 0.4 14.1 359 22
2010-07-01 06:03:30 51°24.03 2°53.597 0.1 14.1 -999 22
2010-07-01 06:03:35 51°24.05 2°53.597 0.1 14.1 359 22
2010-07-01 06:03:40 51°24.069 2°53.597 -999 14.1 359 21.7
2010-07-01 06:03:45 51°24.089 2°53.596 359.9 14.1 358 21.1
2010-07-01 06:03:50 51°24.108 2°53.595 359.9 14.1 -999 21.1
2010-07-01 06:03:55 51°24.128 2°53.594 0.2 14.1 358 21.4
2010-07-01 06:04:00 51°24.147 2°53.594 -999 14.1 359 20.8
2010-07-01 06:04:04 51°24.163 2°53.593 359.9 14.1 358 20.3
2010-07-01 06:04:10 51°24.187 2°53.592 359.9 14.1 359 20.6
2010-07-01 06:04:15 51°24.206 2°53.592 0.2 14.1 359 20.3
2010-07-01 06:04:20 51°24.226 2°53.592 0.3 14.1 359 18.8
2010-07-01 06:04:24 51°24.242 2°53.592 0.6 14.2 -999 19.2
2010-07-01 06:04:30 51°24.266 2°53.592 0.7 14.1 -999 19.2
2010-07-01 06:04:35 51°24.285 2°53.592 0.7 14.1 359 17.7
2010-07-01 06:04:40 51°24.305 2°53.591 0.4 14.1 359 18.8
2010-07-01 06:04:45 51°24.325 2°53.591 0.7 14.1 359 17.3
2010-07-01 06:04:50 51°24.344 2°53.591 0.3 14.1 359 18.3
2010-07-01 06:04:55 51°24.364 2°53.59 0.3 14.3 359 18.3
2010-07-01 06:05:00 51°24.384 2°53.59 0.2 14.4 359 18.1
2010-07-01 06:05:04 51°24.4 2°53.59 0.2 14.2 -999 17
2010-07-01 06:05:10 51°24.424 2°53.589 0.5 14.2 -999 17.9
2010-07-01 06:05:15 51°24.444 2°53.589 0.7 14.3 -999 18.1
2010-07-01 06:05:20 51°24.463 2°53.589 0.6 14.3 -999 18.5
2010-07-01 06:05:25 51°24.483 2°53.589 0.8 14.3 -999 18.6
2010-07-01 06:05:30 51°24.503 2°53.59 0.9 14.3 1 18.8
2010-07-01 06:05:35 51°24.523 2°53.59 1 14.3 -999 19.2
2010-07-01 06:05:40 51°24.543 2°53.59 0.7 14.2 -999 19
2010-07-01 06:05:45 51°24.562 2°53.589 0.3 14.2 358 19.4
2010-07-01 06:05:50 51°24.582 2°53.588 -999 14.2 359 19.4
2010-07-01 06:05:55 51°24.602 2°53.587 359.6 14.1 358 19
2010-07-01 06:06:00 51°24.621 2°53.587 -999 14.2 359 16.8
2010-07-01 06:06:05 51°24.641 2°53.586 0.1 14.1 359 16.8
2010-07-01 06:06:10 51°24.661 2°53.586 0.1 14.2 359 18.3
2010-07-01 06:06:15 51°24.68 2°53.585 0.2 14.2 359 18.6
2010-07-01 06:06:20 51°24.7 2°53.585 0.3 14.2 359 18.8
2010-07-01 06:06:24 51°24.716 2°53.585 0.3 14.3 359 19.2
2010-07-01 06:06:30 51°24.739 2°53.584 0.2 14.2 358 19.8
2010-07-01 06:06:35 51°24.759 2°53.582 359.5 14.2 358 19.5
2010-07-01 06:06:40 51°24.779 2°53.582 359.9 14.2 359 19.3
2010-07-01 06:06:44 51°24.794 2°53.58 359.9 14.1 358 18.7
2010-07-01 06:06:50 51°24.818 2°53.58 0.1 14.2 359 19.4
2010-07-01 06:06:55 51°24.837 2°53.579 0.2 14.2 358 19.6
2010-07-01 06:07:00 51°24.857 2°53.578 0.1 14.2 359 19.4
2010-07-01 06:07:05 51°24.877 2°53.577 0.3 14.2 358 19.4
2010-07-01 06:07:10 51°24.896 2°53.577 0.3 14.2 359 18.5
2010-07-01 06:07:15 51°24.916 2°53.576 0.5 14.2 359 18.9
2010-07-01 06:07:20 51°24.936 2°53.575 0.5 14.2 359 19.6
2010-07-01 06:07:24 51°24.951 2°53.575 0.6 14.2 359 20.2
2010-07-01 06:07:30 51°24.975 2°53.574 0.7 14.2 359 19.2
2010-07-01 06:07:35 51°24.995 2°53.573 0.7 14.1 359 20
2010-07-01 06:07:40 51°25.014 2°53.572 0.7 14.1 359 21.2
2010-07-01 06:07:45 51°25.034 2°53.571 0.3 14.1 358 21.7
2010-07-01 06:07:50 51°25.053 2°53.57 0.1 14.1 358 21.9
2010-07-01 06:07:55 51°25.073 2°53.569 359.9 14.1 358 21.3
2010-07-01 06:08:00 51°25.092 2°53.567 359.9 14.1 358 20.9
2010-07-01 06:08:05 51°25.112 2°53.566 359.9 14 358 21.3
2010-07-01 06:08:10 51°25.131 2°53.565 -999 14.1 358 21.8
2010-07-01 06:08:15 51°25.151 2°53.564 0.2 14.1 358 21.6
2010-07-01 06:08:20 51°25.17 2°53.563 0.1 14.1 358 20.3
2010-07-01 06:08:24 51°25.186 2°53.562 0.3 14.1 358 21.5
2010-07-01 06:08:30 51°25.209 2°53.561 0.3 14 359 21.6
2010-07-01 06:08:35 51°25.229 2°53.561 0.5 14.1 359 21.6
2010-07-01 06:08:40 51°25.248 2°53.56 0.1 14.1 358 21.8
2010-07-01 06:08:44 51°25.264 2°53.56 0.1 14.1 359 21.5
2010-07-01 06:08:50 51°25.288 2°53.558 0.3 14.1 358 21.5
2010-07-01 06:08:55 51°25.307 2°53.557 0.1 14.1 358 21.6
2010-07-01 06:09:00 51°25.327 2°53.556 0.1 14.1 358 22
2010-07-01 06:09:05 51°25.346 2°53.555 0.1 14 359 22.2
2010-07-01 06:09:10 51°25.365 2°53.555 0.5 14 359 22.5
2010-07-01 06:09:15 51°25.385 2°53.554 0.8 14 358 22.8
2010-07-01 06:09:20 51°25.404 2°53.553 0.6 14 358 22.9
2010-07-01 06:09:25 51°25.424 2°53.553 0.5 14 359 23.5
2010-07-01 06:09:30 51°25.443 2°53.552 0.2 14 358 23.7
2010-07-01 06:09:35 51°25.463 2°53.551 0.2 14 359 23.9
2010-07-01 06:09:40 51°25.482 2°53.55 0.1 14 358 24.3
2010-07-01 06:09:45 51°25.502 2°53.549 359.8 14 359 24.7
2010-07-01 06:09:50 51°25.521 2°53.548 0.3 14.1 358 24.9
2010-07-01 06:09:55 51°25.541 2°53.548 0.4 14.1 359 25.1
2010-07-01 06:10:00 51°25.561 2°53.547 0.8 14.1 358 25.6
2010-07-01 06:10:05 51°25.581 2°53.547 0.1 14.1 359 25.8
2010-07-01 06:10:10 51°25.601 2°53.546 0.1 14.1 358 26.1
2010-07-01 06:10:15 51°25.62 2°53.545 359.8 14.1 359 25.9
2010-07-01 06:10:20 51°25.64 2°53.544 0.1 14.1 359 25.8
2010-07-01 06:10:24 51°25.655 2°53.543 0.1 14.1 358 25.9
2010-07-01 06:10:30 51°25.679 2°53.542 -999 14.1 358 26.5
2010-07-01 06:10:35 51°25.699 2°53.541 359.4 14.1 358 26.6
2010-07-01 06:10:40 51°25.719 2°53.54 359.6 14.1 358 27
2010-07-01 06:10:45 51°25.738 2°53.539 -999 14.2 358 27.1
2010-07-01 06:10:50 51°25.758 2°53.538 -999 14.1 358 27.1
2010-07-01 06:10:55 51°25.778 2°53.537 0.2 14.1 358 27.2
2010-07-01 06:11:00 51°25.797 2°53.536 0.1 14.2 358 27.5
2010-07-01 06:11:04 51°25.813 2°53.535 0.1 14.1 358 27.9
2010-07-01 06:11:10 51°25.836 2°53.534 0.4 14.1 358 28.2
2010-07-01 06:11:15 51°25.856 2°53.534 0.8 14.1 359 28.6
2010-07-01 06:11:20 51°25.875 2°53.533 0.8 14.2 358 28.7
2010-07-01 06:11:25 51°25.895 2°53.532 0.8 14.2 358 28.9
2010-07-01 06:11:30 51°25.915 2°53.53 0.6 14.2 358 29.3
2010-07-01 06:11:35 51°25.934 2°53.53 0.3 14.2 359 29.5
2010-07-01 06:11:40 51°25.954 2°53.529 0.4 14.2 358 29.9
2010-07-01 06:11:45 51°25.974 2°53.529 0.4 14.2 359 30.4
2010-07-01 06:11:50 51°25.993 2°53.527 0.8 14.2 358 30.4
2010-07-01 06:11:55 51°26.013 2°53.527 0.8 14.2 -999 30.8
2010-07-01 06:12:00 51°26.033 2°53.526 0.8 14.2 358 31
2010-07-01 06:12:05 51°26.052 2°53.526 0.8 14.2 -999 31.2
2010-07-01 06:12:10 51°26.072 2°53.525 1.2 14.2 359 31.4
2010-07-01 06:12:15 51°26.092 2°53.525 0.8 14.2 359 31.5
2010-07-01 06:12:20 51°26.112 2°53.525 0.8 14.3 -999 31.8
2010-07-01 06:12:25 51°26.132 2°53.524 0.6 14.3 359 31.9
2010-07-01 06:12:30 51°26.152 2°53.524 0.8 14.3 359 31.9
2010-07-01 06:12:35 51°26.172 2°53.523 0.7 14.3 359 31.9
2010-07-01 06:12:40 51°26.192 2°53.523 0.5 14.4 359 32.3
2010-07-01 06:12:45 51°26.212 2°53.522 0.6 14.4 359 32.3
2010-07-01 06:12:50 51°26.232 2°53.52 0.7 14.5 358 32.3
2010-07-01 06:12:55 51°26.252 2°53.52 0.6 14.4 359 32.3
2010-07-01 06:13:00 51°26.272 2°53.52 0.6 14.4 359 32.4
2010-07-01 06:13:05 51°26.293 2°53.519 0.4 14.5 359 32.4
2010-07-01 06:13:10 51°26.312 2°53.519 0.3 14.5 -999 32.5
2010-07-01 06:13:15 51°26.332 2°53.519 0.7 14.4 -999 32.7
2010-07-01 06:13:20 51°26.352 2°53.519 0.7 14.4 -999 32.9
2010-07-01 06:13:24 51°26.368 2°53.519 0.5 14.4 359 32.9
2010-07-01 06:13:30 51°26.392 2°53.519 0.1 14.3 -999 33
2010-07-01 06:13:35 51°26.412 2°53.518 0.1 14.4 358 33.1
2010-07-01 06:13:40 51°26.432 2°53.518 -999 14.3 -999 33
2010-07-01 06:13:44 51°26.448 2°53.517 0.1 14.4 359 32.5
2010-07-01 06:13:50 51°26.472 2°53.517 0.1 14.4 -999 32.3
2010-07-01 06:13:55 51°26.492 2°53.517 0.4 14.4 -999 32.1
2010-07-01 06:14:00 51°26.512 2°53.517 0.1 14.4 -999 32.1
2010-07-01 06:14:05 51°26.532 2°53.517 0.8 14.4 1 32.3
2010-07-01 06:14:10 51°26.552 2°53.517 0.7 14.4 -999 32.6
2010-07-01 06:14:15 51°26.571 2°53.517 0.1 14.3 -999 32.7
2010-07-01 06:14:20 51°26.591 2°53.517 0.2 14.3 -999 32.3
2010-07-01 06:14:25 51°26.611 2°53.517 0.1 14.3 -999 32.3
2010-07-01 06:14:30 51°26.63 2°53.516 0.1 14.2 359 32.1
2010-07-01 06:14:35 51°26.65 2°53.516 -999 14.2 -999 31.9
2010-07-01 06:14:40 51°26.67 2°53.516 -999 14.2 -999 31.5
2010-07-01 06:14:45 51°26.689 2°53.516 359.9 14.2 359 31.1
2010-07-01 06:14:50 51°26.709 2°53.517 1.6 14.2 2 30.3
2010-07-01 06:14:55 51°26.729 2°53.517 2.2 14.1 1 29.7
2010-07-01 06:15:00 51°26.748 2°53.519 3.3 14 3 28.6
2010-07-01 06:15:05 51°26.767 2°53.52 3.7 14.1 1 28.6
2010-07-01 06:15:10 51°26.787 2°53.523 4.7 14 5 28.8
2010-07-01 06:15:15 51°26.806 2°53.523 4.9 14 2 28.7
2010-07-01 06:15:20 51°26.825 2°53.527 5.3 13.9 6 28.4
2010-07-01 06:15:24 51°26.841 2°53.528 5.5 13.9 2 28
2010-07-01 06:15:30 51°26.864 2°53.531 5.4 13.9 5 27.5
2010-07-01 06:15:35 51°26.884 2°53.532 5.6 14 3 27.4
2010-07-01 06:15:40 51°26.903 2°53.535 5.4 14 5 27.1
2010-07-01 06:15:44 51°26.919 2°53.537 5.8 14.1 4 27
2010-07-01 06:15:50 51°26.942 2°53.54 5.7 14 4 27
2010-07-01 06:15:55 51°26.961 2°53.543 5.9 14 5 27.4
2010-07-01 06:16:00 51°26.981 2°53.545 6.2 14 5 27.6
2010-07-01 06:16:05 51°27 2°53.547 5.7 14 4 27.7
2010-07-01 06:16:10 51°27.019 2°53.55 5.9 14 5 27.6
2010-07-01 06:16:15 51°27.038 2°53.551 5.5 13.9 3 27.7
2010-07-01 06:16:20 51°27.058 2°53.553 5 13.9 4 27.6
2010-07-01 06:16:25 51°27.077 2°53.555 4.9 13.9 3 27.4
2010-07-01 06:16:30 51°27.096 2°53.558 5.5 13.9 4 27.2
2010-07-01 06:16:35 51°27.116 2°53.559 5.8 14 3 26.8
2010-07-01 06:16:40 51°27.135 2°53.562 5.9 14 4 26.4
2010-07-01 06:16:45 51°27.154 2°53.564 5.9 14 4 25.7
2010-07-01 06:16:50 51°27.174 2°53.566 5.9 14 4 25.5
2010-07-01 06:16:55 51°27.193 2°53.568 5.9 14 4 25.2
2010-07-01 06:17:00 51°27.212 2°53.57 5.9 14 4 24.7
2010-07-01 06:17:05 51°27.232 2°53.572 5.8 14.1 4 26
2010-07-01 06:17:10 51°27.252 2°53.575 5.9 14.1 4 26.7
2010-07-01 06:17:15 51°27.271 2°53.577 6 14.1 4 27
2010-07-01 06:17:20 51°27.291 2°53.579 5.9 14.2 4 27.7
2010-07-01 06:17:24 51°27.306 2°53.581 5.6 14.2 4 27.5
2010-07-01 06:17:30 51°27.33 2°53.583 5.7 14.2 4 27.8
2010-07-01 06:17:35 51°27.349 2°53.586 6 14.2 5 27.2
2010-07-01 06:17:40 51°27.369 2°53.588 5.9 14.2 4 26.1
2010-07-01 06:17:44 51°27.385 2°53.59 5.9 14.2 5 25.5
2010-07-01 06:17:50 51°27.409 2°53.593 5.9 14.3 4 26.6
2010-07-01 06:17:55 51°27.429 2°53.595 5.7 14.4 4 27
2010-07-01 06:18:00 51°27.448 2°53.597 5.5 14.4 4 27.4
2010-07-01 06:18:05 51°27.468 2°53.6 5.4 14.3 4 26.7
2010-07-01 06:18:10 51°27.487 2°53.601 5.7 14.2 4 24.1
2010-07-01 06:18:15 51°27.507 2°53.604 5.6 14.2 4 25.8
2010-07-01 06:18:20 51°27.526 2°53.606 5.7 14.2 4 25.7
2010-07-01 06:18:25 51°27.546 2°53.608 5.3 14.2 4 21.7
2010-07-01 06:18:30 51°27.566 2°53.61 5.4 14.3 4 23.8
2010-07-01 06:18:35 51°27.586 2°53.612 5.5 14.3 3 24.4
2010-07-01 06:18:40 51°27.606 2°53.615 5.2 14.3 4 24.4
2010-07-01 06:18:45 51°27.625 2°53.617 5.6 14.3 4 23.1
2010-07-01 06:18:50 51°27.645 2°53.619 5.2 14.3 4 23.1
2010-07-01 06:18:55 51°27.665 2°53.621 5.4 14.4 4 20.7
2010-07-01 06:19:00 51°27.685 2°53.623 5.2 14.3 4 22.7
2010-07-01 06:19:05 51°27.705 2°53.625 5.3 14.4 4 23.1
2010-07-01 06:19:10 51°27.725 2°53.628 5 14.4 3 23.2
2010-07-01 06:19:15 51°27.745 2°53.629 5 14.3 3 22.8
2010-07-01 06:19:20 51°27.765 2°53.631 4.6 14.3 3 21.4
2010-07-01 06:19:24 51°27.781 2°53.633 5 14.4 3 20.9
2010-07-01 06:19:30 51°27.804 2°53.635 4.9 14.3 4 21.9
2010-07-01 06:19:35 51°27.825 2°53.638 5.1 14.3 5 21.4
2010-07-01 06:19:40 51°27.845 2°53.64 5.4 14.4 5 20.2
2010-07-01 06:19:44 51°27.861 2°53.643 5.8 14.4 5 21.8
2010-07-01 06:19:50 51°27.884 2°53.645 5.9 14.4 4 22.4
2010-07-01 06:19:55 51°27.903 2°53.648 5.6 14.4 5 22.4
2010-07-01 06:20:00 51°27.924 2°53.651 5.7 14.3 5 22.8
2010-07-01 06:20:04 51°27.94 2°53.652 5.2 14.4 4 23
2010-07-01 06:20:10 51°27.963 2°53.655 5.3 14.3 4 22
2010-07-01 06:20:15 51°27.983 2°53.658 5.2 14.4 4 20.7
2010-07-01 06:20:20 51°28.003 2°53.66 5 14.4 4 19.2
2010-07-01 06:20:25 51°28.023 2°53.662 4.4 14.3 3 20.9
2010-07-01 06:20:30 51°28.043 2°53.665 5.3 14.3 5 21.8
2010-07-01 06:20:35 51°28.062 2°53.666 4.5 14.3 3 20.7
2010-07-01 06:20:40 51°28.082 2°53.669 4.8 14.3 5 21.8
2010-07-01 06:20:45 51°28.101 2°53.671 5.1 14.3 4 22
2010-07-01 06:20:50 51°28.121 2°53.673 5.2 14.2 4 21.8
2010-07-01 06:20:55 51°28.141 2°53.674 4.9 14.2 3 21.1
2010-07-01 06:21:00 51°28.161 2°53.676 4.9 14.2 4 20.8
2010-07-01 06:21:05 51°28.18 2°53.678 4.8 14.1 2 21.2
2010-07-01 06:21:05 51°28.18 2°53.678 4.8 14.1 3 21.2
2010-07-01 06:21:16 51°28.223 2°53.684 6.8 14.2 6 22.8
2010-07-01 06:23:38 51°28.771 2°53.876 15.6 14.1 12 25.6
2010-07-01 06:23:43 51°28.79 2°53.883 15.3 14.2 13 25.6
2010-07-01 06:23:48 51°28.81 2°53.89 15.4 14.2 13 25.6
2010-07-01 06:23:52 51°28.825 2°53.896 15.9 14.2 14 25.7
2010-07-01 06:23:58 51°28.848 2°53.905 15.9 14.2 13 25.9
2010-07-01 06:24:03 51°28.867 2°53.912 16.2 14.2 14 26.1
2010-07-01 06:24:08 51°28.887 2°53.919 15.8 14.2 13 26.1
2010-07-01 06:24:12 51°28.902 2°53.925 16 14.3 14 26.1
2010-07-01 06:24:18 51°28.925 2°53.934 15.5 14.3 13 26.3
2010-07-01 06:24:23 51°28.944 2°53.941 15.3 14.3 13 26.4
2010-07-01 06:24:28 51°28.964 2°53.948 15.1 14.3 13 26.4
2010-07-01 06:24:32 51°28.979 2°53.954 15.3 14.3 13 26.5
2010-07-01 06:24:38 51°29.002 2°53.963 15.6 14.3 14 26.7
2010-07-01 06:24:43 51°29.022 2°53.969 15.3 14.3 12 26.9
2010-07-01 06:24:48 51°29.041 2°53.977 15.3 14.3 14 27
2010-07-01 06:24:52 51°29.056 2°53.983 15.4 14.3 13 27.1
2010-07-01 06:24:58 51°29.079 2°53.993 15.8 14.3 15 27.1
2010-07-01 06:25:03 51°29.098 2°54 16.2 14.2 13 27.1
2010-07-01 06:25:08 51°29.118 2°54.007 16.1 14.2 14 27.3
2010-07-01 06:25:13 51°29.137 2°54.014 15.6 14.2 13 27.3
2010-07-01 06:25:18 51°29.156 2°54.021 15.6 14.1 14 27.6
2010-07-01 06:25:23 51°29.175 2°54.029 15 14.1 13 27.6
2010-07-01 06:25:28 51°29.194 2°54.035 15.2 14.1 13 27.6
2010-07-01 06:25:33 51°29.213 2°54.042 14.6 14.1 12 27.7
2010-07-01 06:25:38 51°29.232 2°54.049 15 14.1 12 27.9
2010-07-01 06:25:43 51°29.251 2°54.056 15.1 14.1 13 28
2010-07-01 06:25:48 51°29.27 2°54.062 15.4 14.1 13 28
2010-07-01 06:25:53 51°29.289 2°54.07 15.3 14.1 13 28.3
2010-07-01 06:25:58 51°29.308 2°54.077 15.8 14.2 13 28.2
2010-07-01 06:26:03 51°29.327 2°54.084 15.5 14.2 13 28.3
2010-07-01 06:26:08 51°29.347 2°54.091 15.5 14.1 13 28.3
2010-07-01 06:26:12 51°29.362 2°54.097 15.4 14.1 13 28.4
2010-07-01 06:26:18 51°29.385 2°54.105 15.3 14.1 13 28.6
2010-07-01 06:26:23 51°29.404 2°54.112 15.4 14.1 13 28.6
2010-07-01 06:26:28 51°29.423 2°54.12 15.6 14.1 13 28.8
2010-07-01 06:26:32 51°29.438 2°54.125 15.3 14.1 13 28.9
2010-07-01 06:26:37 51°29.457 2°54.133 15.3 14.2 14 29.3
2010-07-01 06:26:43 51°29.48 2°54.141 15.6 14.2 13 29.3
2010-07-01 06:26:48 51°29.5 2°54.148 15.6 14.2 13 29.3
2010-07-01 06:26:53 51°29.519 2°54.156 15.6 14.2 13 29.4
2010-07-01 06:26:58 51°29.538 2°54.163 15.5 14.2 13 29.5
2010-07-01 06:27:03 51°29.557 2°54.171 15.3 14.2 14 29.6
2010-07-01 06:27:08 51°29.576 2°54.178 15.6 14.2 14 29.7
2010-07-01 06:27:13 51°29.596 2°54.186 16.2 14.2 14 30.2
2010-07-01 06:27:18 51°29.615 2°54.193 15.6 14.3 13 30.3
2010-07-01 06:27:23 51°29.634 2°54.2 15.5 14.2 14 30.4
2010-07-01 06:27:28 51°29.653 2°54.207 15.4 14.2 13 30.5
2010-07-01 06:27:33 51°29.673 2°54.215 15.6 14.3 14 30.6
2010-07-01 06:27:38 51°29.692 2°54.223 15.8 14.3 14 30.8
2010-07-01 06:27:43 51°29.711 2°54.23 15.8 14.2 14 30.8
2010-07-01 06:27:48 51°29.73 2°54.238 15.8 14.3 14 31.3
2010-07-01 06:27:53 51°29.75 2°54.245 15.3 14.3 13 31.4
2010-07-01 06:27:58 51°29.769 2°54.253 15.4 14.3 14 31.5
2010-07-01 06:28:03 51°29.788 2°54.26 15.1 14.3 13 31.9
2010-07-01 06:28:08 51°29.807 2°54.268 15.3 14.3 14 32.1
2010-07-01 06:28:13 51°29.826 2°54.276 15.3 14.3 14 32.2
2010-07-01 06:28:18 51°29.846 2°54.283 15.8 14.3 13 32.3
2010-07-01 06:28:23 51°29.865 2°54.291 15.3 14.3 14 32.5
2010-07-01 06:28:28 51°29.885 2°54.298 15.4 14.4 14 32.5
2010-07-01 06:28:32 51°29.9 2°54.305 15.2 14.4 15 32.5
2010-07-01 06:28:38 51°29.923 2°54.315 15.8 14.4 16 32.8
2010-07-01 06:28:43 51°29.943 2°54.324 16.1 14.5 16 32.7
2010-07-01 06:28:48 51°29.962 2°54.332 16.1 14.5 15 32.6
2010-07-01 06:28:52 51°29.978 2°54.339 15.8 14.5 15 32.5
2010-07-01 06:28:58 51°30.001 2°54.349 15.5 14.6 15 32.9
2010-07-01 06:29:03 51°30.02 2°54.358 15.3 14.5 15 33.5
2010-07-01 06:29:08 51°30.04 2°54.366 15.5 14.6 15 33.1
2010-07-01 06:29:13 51°30.059 2°54.375 15.5 14.6 15 32.4
2010-07-01 06:29:18 51°30.079 2°54.383 15.5 14.6 15 31.7
2010-07-01 06:29:23 51°30.098 2°54.391 15.4 14.6 15 31.9
2010-07-01 06:29:28 51°30.118 2°54.4 15.4 14.6 15 33.2
2010-07-01 06:29:33 51°30.137 2°54.409 15.6 14.6 16 33.4
2010-07-01 06:29:38 51°30.157 2°54.417 15.7 14.6 15 33.4
2010-07-01 06:29:43 51°30.176 2°54.426 15.5 14.6 16 33.7
2010-07-01 06:29:48 51°30.196 2°54.434 15.3 14.6 15 33.4
2010-07-01 06:29:53 51°30.215 2°54.443 14.8 14.6 15 33.6
2010-07-01 06:29:58 51°30.235 2°54.451 15.3 14.6 15 33.6
2010-07-01 06:30:03 51°30.255 2°54.46 15.1 14.6 15 33.7
2010-07-01 06:30:08 51°30.274 2°54.468 15.1 14.6 15 33.9
2010-07-01 06:30:13 51°30.294 2°54.477 15 14.6 15 33.9
2010-07-01 06:30:18 51°30.313 2°54.486 15.3 14.7 15 33.8
2010-07-01 06:30:23 51°30.333 2°54.494 15.5 14.7 15 33.8
2010-07-01 06:30:28 51°30.353 2°54.502 15.2 14.7 15 34
2010-07-01 06:30:33 51°30.372 2°54.511 15.3 14.7 16 34.4
2010-07-01 06:30:38 51°30.392 2°54.52 15.3 14.8 15 34.6
2010-07-01 06:30:43 51°30.412 2°54.529 15.3 14.7 16 34.8
2010-07-01 06:30:48 51°30.432 2°54.537 15.3 14.6 15 34.7
2010-07-01 06:30:52 51°30.447 2°54.544 14.8 14.6 15 34.7
2010-07-01 06:30:58 51°30.47 2°54.556 15.9 14.6 17 34.7
2010-07-01 06:31:03 51°30.49 2°54.564 16.9 14.5 16 34.5
2010-07-01 06:31:08 51°30.508 2°54.576 17.6 14.5 19 34.5
2010-07-01 06:31:12 51°30.524 2°54.584 18.9 14.4 18 34.5
2010-07-01 06:31:18 51°30.546 2°54.597 19.2 14.4 20 34.1
2010-07-01 06:31:23 51°30.565 2°54.607 20 14.3 18 33.5
2010-07-01 06:31:28 51°30.584 2°54.618 20.1 14.3 20 33.1
2010-07-01 06:31:33 51°30.602 2°54.627 20.6 13.6 18 32.9
2010-07-01 06:31:38 51°30.618 2°54.637 19.7 12.6 19 32.7
2010-07-01 06:31:43 51°30.633 2°54.644 19.8 11.7 19 32.4
2010-07-01 06:31:48 51°30.647 2°54.652 18.8 11 18 32.1
2010-07-01 06:31:53 51°30.661 2°54.658 17.9 10.4 17 31.5
2010-07-01 06:31:58 51°30.674 2°54.665 17.5 9.8 18 31.4
2010-07-01 06:32:03 51°30.686 2°54.671 17.2 9.3 17 31.2
2010-07-01 06:32:08 51°30.698 2°54.677 16.8 9 18 30.9
2010-07-01 06:32:13 51°30.709 2°54.683 16.8 8.6 17 30.6
2010-07-01 06:32:18 51°30.72 2°54.689 16.8 8.3 19 30.3
2010-07-01 06:32:23 51°30.731 2°54.695 17.3 8 19 30.2
2010-07-01 06:32:28 51°30.741 2°54.701 17.7 7.7 19 28.7